< < Back
Terminal Aerodrome Forecast


Current Version              Previous Versions:   1  2  3  4  5  6  7  8  9  

Terminal Aerodrome Forecast

302
FTUS42 KILM 210200 AAB
TAFILM
TAF AMD
KILM 210226Z 2102/2124 02012KT P6SM BKN015
      TEMPO 2102/2106 6SM -RA BR BKN008
     FM210600 02011KT 6SM -RA BKN006
     FM211000 34012KT P6SM VCSH BKN025
     FM211300 33012G18KT P6SM SCT030=



Latest METAR

141
SAUS70 KWBC 210400 RRB
MTRILM
METAR KILM 210353Z AUTO 01010KT 10SM -RA BKN009 BKN110 21/20 A2987 RMK
AO2 RAB11 SLP113 P0001 T02110200


USA.gov is the U.S. government's official web portal to all federal, state and local government web resources and services.